sensor_id;sensor_type;location;lat;lon;timestamp;P1;durP1;ratioP1;P2;durP2;ratioP2
18726;SDS011;9492;51.888;5.186;2022-07-29T00:00:06;1.40;;;1.30;;
18726;SDS011;9492;51.888;5.186;2022-07-29T00:02:33;2.63;;;1.77;;
18726;SDS011;9492;51.888;5.186;2022-07-29T00:04:59;2.50;;;1.37;;
18726;SDS011;9492;51.888;5.186;2022-07-29T00:07:25;2.40;;;1.00;;
18726;SDS011;9492;51.888;5.186;2022-07-29T00:09:51;2.03;;;1.17;;
18726;SDS011;9492;51.888;5.186;2022-07-29T00:12:17;1.70;;;1.27;;
18726;SDS011;9492;51.888;5.186;2022-07-29T00:14:43;2.20;;;1.33;;
18726;SDS011;9492;51.888;5.186;2022-07-29T00:17:09;2.90;;;1.43;;
18726;SDS011;9492;51.888;5.186;2022-07-29T00:19:35;4.13;;;1.47;;
18726;SDS011;9492;51.888;5.186;2022-07-29T00:22:01;2.73;;;1.47;;
18726;SDS011;9492;51.888;5.186;2022-07-29T00:24:27;1.00;;;1.00;;
18726;SDS011;9492;51.888;5.186;2022-07-29T00:26:53;1.53;;;1.30;;
18726;SDS011;9492;51.888;5.186;2022-07-29T00:29:19;2.40;;;1.40;;
18726;SDS011;9492;51.888;5.186;2022-07-29T00:31:45;1.73;;;1.40;;
18726;SDS011;9492;51.888;5.186;2022-07-29T00:34:11;2.33;;;1.30;;
18726;SDS011;9492;51.888;5.186;2022-07-29T00:36:56;2.10;;;1.40;;
18726;SDS011;9492;51.888;5.186;2022-07-29T00:39:22;3.87;;;2.30;;
18726;SDS011;9492;51.888;5.186;2022-07-29T00:41:48;4.70;;;1.90;;
18726;SDS011;9492;51.888;5.186;2022-07-29T00:44:14;5.23;;;2.03;;
18726;SDS011;9492;51.888;5.186;2022-07-29T00:46:40;7.40;;;3.73;;
18726;SDS011;9492;51.888;5.186;2022-07-29T00:49:06;5.17;;;3.27;;
18726;SDS011;9492;51.888;5.186;2022-07-29T00:51:32;6.93;;;4.17;;
18726;SDS011;9492;51.888;5.186;2022-07-29T00:53:58;12.57;;;8.37;;
18726;SDS011;9492;51.888;5.186;2022-07-29T00:56:24;26.63;;;15.03;;
18726;SDS011;9492;51.888;5.186;2022-07-29T00:58:50;21.33;;;14.37;;
18726;SDS011;9492;51.888;5.186;2022-07-29T01:01:17;17.83;;;12.13;;
18726;SDS011;9492;51.888;5.186;2022-07-29T01:03:43;8.57;;;5.40;;
18726;SDS011;9492;51.888;5.186;2022-07-29T01:06:09;4.60;;;2.97;;
18726;SDS011;9492;51.888;5.186;2022-07-29T01:08:35;2.50;;;1.60;;
18726;SDS011;9492;51.888;5.186;2022-07-29T01:11:01;1.40;;;1.30;;
18726;SDS011;9492;51.888;5.186;2022-07-29T01:13:27;3.43;;;1.30;;
18726;SDS011;9492;51.888;5.186;2022-07-29T01:15:56;1.73;;;1.23;;
18726;SDS011;9492;51.888;5.186;2022-07-29T01:18:25;2.33;;;1.30;;
18726;SDS011;9492;51.888;5.186;2022-07-29T01:23:42;1.83;;;1.00;;
18726;SDS011;9492;51.888;5.186;2022-07-29T01:29:18;1.50;;;1.30;;
18726;SDS011;9492;51.888;5.186;2022-07-29T01:37:05;1.70;;;1.20;;
18726;SDS011;9492;51.888;5.186;2022-07-29T01:39:35;2.63;;;1.47;;
18726;SDS011;9492;51.888;5.186;2022-07-29T01:42:10;3.07;;;2.07;;
18726;SDS011;9492;51.888;5.186;2022-07-29T01:44:39;5.07;;;3.33;;
18726;SDS011;9492;51.888;5.186;2022-07-29T01:47:08;5.00;;;3.90;;
18726;SDS011;9492;51.888;5.186;2022-07-29T01:49:36;5.40;;;3.70;;
18726;SDS011;9492;51.888;5.186;2022-07-29T01:52:08;3.70;;;2.37;;
18726;SDS011;9492;51.888;5.186;2022-07-29T01:54:37;1.83;;;1.70;;
18726;SDS011;9492;51.888;5.186;2022-07-29T01:57:07;1.10;;;1.10;;
18726;SDS011;9492;51.888;5.186;2022-07-29T01:59:34;2.10;;;1.30;;
18726;SDS011;9492;51.888;5.186;2022-07-29T02:02:00;1.20;;;1.10;;
18726;SDS011;9492;51.888;5.186;2022-07-29T02:04:27;2.33;;;1.30;;
18726;SDS011;9492;51.888;5.186;2022-07-29T02:06:54;1.47;;;1.20;;
18726;SDS011;9492;51.888;5.186;2022-07-29T02:09:21;1.70;;;1.30;;
18726;SDS011;9492;51.888;5.186;2022-07-29T02:11:49;2.50;;;1.00;;
18726;SDS011;9492;51.888;5.186;2022-07-29T02:14:17;1.23;;;1.10;;
18726;SDS011;9492;51.888;5.186;2022-07-29T02:16:44;1.13;;;1.03;;
18726;SDS011;9492;51.888;5.186;2022-07-29T02:19:10;2.90;;;1.40;;
18726;SDS011;9492;51.888;5.186;2022-07-29T02:21:37;3.10;;;1.47;;
18726;SDS011;9492;51.888;5.186;2022-07-29T02:24:04;4.03;;;1.20;;
18726;SDS011;9492;51.888;5.186;2022-07-29T02:26:30;1.97;;;1.40;;
18726;SDS011;9492;51.888;5.186;2022-07-29T02:28:57;1.57;;;1.17;;
18726;SDS011;9492;51.888;5.186;2022-07-29T02:31:25;2.13;;;1.33;;
18726;SDS011;9492;51.888;5.186;2022-07-29T02:33:52;1.70;;;1.20;;
18726;SDS011;9492;51.888;5.186;2022-07-29T02:36:21;2.00;;;1.30;;
18726;SDS011;9492;51.888;5.186;2022-07-29T02:38:47;3.23;;;1.20;;
18726;SDS011;9492;51.888;5.186;2022-07-29T02:41:22;2.47;;;1.47;;
18726;SDS011;9492;51.888;5.186;2022-07-29T02:43:50;2.90;;;1.10;;
18726;SDS011;9492;51.888;5.186;2022-07-29T02:46:19;3.27;;;1.43;;
18726;SDS011;9492;51.888;5.186;2022-07-29T02:51:33;2.30;;;1.40;;
18726;SDS011;9492;51.888;5.186;2022-07-29T02:54:00;2.50;;;1.30;;
18726;SDS011;9492;51.888;5.186;2022-07-29T02:56:28;3.17;;;1.50;;
18726;SDS011;9492;51.888;5.186;2022-07-29T02:59:01;1.47;;;1.13;;
18726;SDS011;9492;51.888;5.186;2022-07-29T03:01:30;1.67;;;1.23;;
18726;SDS011;9492;51.888;5.186;2022-07-29T03:03:56;3.27;;;1.73;;
18726;SDS011;9492;51.888;5.186;2022-07-29T03:06:23;2.30;;;1.83;;
18726;SDS011;9492;51.888;5.186;2022-07-29T03:08:49;2.87;;;1.97;;
18726;SDS011;9492;51.888;5.186;2022-07-29T03:11:16;2.60;;;2.00;;
18726;SDS011;9492;51.888;5.186;2022-07-29T03:13:42;2.50;;;1.73;;
18726;SDS011;9492;51.888;5.186;2022-07-29T03:16:08;3.80;;;1.57;;
18726;SDS011;9492;51.888;5.186;2022-07-29T03:18:35;4.57;;;1.70;;
18726;SDS011;9492;51.888;5.186;2022-07-29T03:21:02;2.67;;;1.90;;
18726;SDS011;9492;51.888;5.186;2022-07-29T03:23:28;3.20;;;1.70;;
18726;SDS011;9492;51.888;5.186;2022-07-29T03:25:54;4.27;;;1.77;;
18726;SDS011;9492;51.888;5.186;2022-07-29T03:28:20;3.47;;;1.50;;
18726;SDS011;9492;51.888;5.186;2022-07-29T03:30:47;3.20;;;1.70;;
18726;SDS011;9492;51.888;5.186;2022-07-29T03:33:13;2.23;;;1.57;;
18726;SDS011;9492;51.888;5.186;2022-07-29T03:35:39;2.83;;;1.50;;
18726;SDS011;9492;51.888;5.186;2022-07-29T03:38:05;2.67;;;1.70;;
18726;SDS011;9492;51.888;5.186;2022-07-29T03:40:32;2.57;;;1.93;;
18726;SDS011;9492;51.888;5.186;2022-07-29T03:42:59;4.23;;;1.40;;
18726;SDS011;9492;51.888;5.186;2022-07-29T03:45:26;3.63;;;1.30;;
18726;SDS011;9492;51.888;5.186;2022-07-29T03:47:55;4.23;;;1.70;;
18726;SDS011;9492;51.888;5.186;2022-07-29T03:50:22;1.83;;;1.60;;
18726;SDS011;9492;51.888;5.186;2022-07-29T03:52:48;1.70;;;1.43;;
18726;SDS011;9492;51.888;5.186;2022-07-29T03:55:15;2.77;;;1.80;;
18726;SDS011;9492;51.888;5.186;2022-07-29T03:57:41;2.90;;;2.07;;
18726;SDS011;9492;51.888;5.186;2022-07-29T04:00:08;2.20;;;1.67;;
18726;SDS011;9492;51.888;5.186;2022-07-29T04:02:35;3.13;;;1.87;;
18726;SDS011;9492;51.888;5.186;2022-07-29T04:05:01;3.07;;;1.63;;
18726;SDS011;9492;51.888;5.186;2022-07-29T04:07:27;2.43;;;1.70;;
18726;SDS011;9492;51.888;5.186;2022-07-29T04:09:54;2.70;;;1.60;;
18726;SDS011;9492;51.888;5.186;2022-07-29T04:12:19;1.93;;;1.83;;
18726;SDS011;9492;51.888;5.186;2022-07-29T04:14:46;2.83;;;1.80;;
18726;SDS011;9492;51.888;5.186;2022-07-29T04:17:12;2.67;;;1.73;;
18726;SDS011;9492;51.888;5.186;2022-07-29T04:19:38;2.27;;;2.10;;
18726;SDS011;9492;51.888;5.186;2022-07-29T04:22:04;2.80;;;1.83;;
18726;SDS011;9492;51.888;5.186;2022-07-29T04:24:29;1.80;;;1.70;;
18726;SDS011;9492;51.888;5.186;2022-07-29T04:26:56;4.20;;;1.87;;
18726;SDS011;9492;51.888;5.186;2022-07-29T04:29:21;3.80;;;1.67;;
18726;SDS011;9492;51.888;5.186;2022-07-29T04:31:47;2.33;;;1.57;;
18726;SDS011;9492;51.888;5.186;2022-07-29T04:34:14;1.47;;;1.37;;
18726;SDS011;9492;51.888;5.186;2022-07-29T04:36:40;2.70;;;1.70;;
18726;SDS011;9492;51.888;5.186;2022-07-29T04:39:06;2.73;;;1.57;;
18726;SDS011;9492;51.888;5.186;2022-07-29T04:41:32;2.37;;;1.63;;
18726;SDS011;9492;51.888;5.186;2022-07-29T04:43:58;2.60;;;1.40;;
18726;SDS011;9492;51.888;5.186;2022-07-29T04:46:25;2.30;;;1.60;;
18726;SDS011;9492;51.888;5.186;2022-07-29T04:48:51;2.57;;;1.77;;
18726;SDS011;9492;51.888;5.186;2022-07-29T04:51:17;2.67;;;1.30;;
18726;SDS011;9492;51.888;5.186;2022-07-29T04:53:43;2.80;;;1.63;;
18726;SDS011;9492;51.888;5.186;2022-07-29T04:56:10;2.00;;;1.60;;
18726;SDS011;9492;51.888;5.186;2022-07-29T04:58:36;2.53;;;1.60;;
18726;SDS011;9492;51.888;5.186;2022-07-29T05:01:03;3.33;;;1.40;;
18726;SDS011;9492;51.888;5.186;2022-07-29T05:03:29;3.73;;;1.70;;
18726;SDS011;9492;51.888;5.186;2022-07-29T05:05:55;4.63;;;1.70;;
18726;SDS011;9492;51.888;5.186;2022-07-29T05:08:21;1.77;;;1.47;;
18726;SDS011;9492;51.888;5.186;2022-07-29T05:10:47;1.87;;;1.53;;
18726;SDS011;9492;51.888;5.186;2022-07-29T05:13:13;2.63;;;1.83;;
18726;SDS011;9492;51.888;5.186;2022-07-29T05:15:39;2.47;;;1.63;;
18726;SDS011;9492;51.888;5.186;2022-07-29T05:18:05;1.40;;;1.30;;
18726;SDS011;9492;51.888;5.186;2022-07-29T05:20:31;1.73;;;1.50;;
18726;SDS011;9492;51.888;5.186;2022-07-29T05:22:59;1.50;;;1.40;;
18726;SDS011;9492;51.888;5.186;2022-07-29T05:25:25;3.50;;;2.20;;
18726;SDS011;9492;51.888;5.186;2022-07-29T05:27:53;3.00;;;1.57;;
18726;SDS011;9492;51.888;5.186;2022-07-29T05:30:19;1.80;;;1.53;;
18726;SDS011;9492;51.888;5.186;2022-07-29T05:32:45;1.40;;;1.30;;
18726;SDS011;9492;51.888;5.186;2022-07-29T05:35:12;1.30;;;1.20;;
18726;SDS011;9492;51.888;5.186;2022-07-29T05:37:38;3.07;;;1.40;;
18726;SDS011;9492;51.888;5.186;2022-07-29T05:40:05;2.27;;;1.50;;
18726;SDS011;9492;51.888;5.186;2022-07-29T05:42:31;2.80;;;1.40;;
18726;SDS011;9492;51.888;5.186;2022-07-29T05:44:57;3.70;;;2.00;;
18726;SDS011;9492;51.888;5.186;2022-07-29T05:47:23;3.33;;;1.87;;
18726;SDS011;9492;51.888;5.186;2022-07-29T05:49:49;5.83;;;1.57;;
18726;SDS011;9492;51.888;5.186;2022-07-29T05:52:16;1.80;;;1.63;;
18726;SDS011;9492;51.888;5.186;2022-07-29T05:54:42;3.63;;;1.77;;
18726;SDS011;9492;51.888;5.186;2022-07-29T05:57:08;3.17;;;1.80;;
18726;SDS011;9492;51.888;5.186;2022-07-29T05:59:37;3.27;;;1.80;;
18726;SDS011;9492;51.888;5.186;2022-07-29T06:02:03;1.83;;;1.50;;
18726;SDS011;9492;51.888;5.186;2022-07-29T06:04:30;2.37;;;1.87;;
18726;SDS011;9492;51.888;5.186;2022-07-29T06:06:56;3.63;;;2.00;;
18726;SDS011;9492;51.888;5.186;2022-07-29T06:09:22;2.70;;;1.80;;
18726;SDS011;9492;51.888;5.186;2022-07-29T06:11:48;4.47;;;1.97;;
18726;SDS011;9492;51.888;5.186;2022-07-29T06:14:14;2.10;;;1.90;;
18726;SDS011;9492;51.888;5.186;2022-07-29T06:16:40;3.53;;;1.90;;
18726;SDS011;9492;51.888;5.186;2022-07-29T06:19:06;2.53;;;1.50;;
18726;SDS011;9492;51.888;5.186;2022-07-29T06:21:32;2.27;;;1.80;;
18726;SDS011;9492;51.888;5.186;2022-07-29T06:23:58;1.60;;;1.30;;
18726;SDS011;9492;51.888;5.186;2022-07-29T06:26:24;2.97;;;1.70;;
18726;SDS011;9492;51.888;5.186;2022-07-29T06:28:50;3.77;;;1.93;;
18726;SDS011;9492;51.888;5.186;2022-07-29T06:31:16;3.73;;;1.80;;
18726;SDS011;9492;51.888;5.186;2022-07-29T06:33:42;4.10;;;1.70;;
18726;SDS011;9492;51.888;5.186;2022-07-29T06:36:08;1.40;;;1.30;;
18726;SDS011;9492;51.888;5.186;2022-07-29T06:38:34;4.80;;;1.80;;
18726;SDS011;9492;51.888;5.186;2022-07-29T06:41:00;3.17;;;2.00;;
18726;SDS011;9492;51.888;5.186;2022-07-29T06:43:41;3.07;;;2.20;;
18726;SDS011;9492;51.888;5.186;2022-07-29T06:46:08;1.80;;;1.70;;
18726;SDS011;9492;51.888;5.186;2022-07-29T06:48:35;4.80;;;2.10;;
18726;SDS011;9492;51.888;5.186;2022-07-29T06:51:01;3.23;;;2.23;;
18726;SDS011;9492;51.888;5.186;2022-07-29T06:53:28;3.60;;;2.20;;
18726;SDS011;9492;51.888;5.186;2022-07-29T06:55:54;2.87;;;1.90;;
18726;SDS011;9492;51.888;5.186;2022-07-29T06:58:20;2.57;;;1.83;;
18726;SDS011;9492;51.888;5.186;2022-07-29T07:00:46;2.63;;;2.10;;
18726;SDS011;9492;51.888;5.186;2022-07-29T07:03:13;2.03;;;1.60;;
18726;SDS011;9492;51.888;5.186;2022-07-29T07:05:39;5.13;;;2.47;;
18726;SDS011;9492;51.888;5.186;2022-07-29T07:08:05;2.23;;;2.03;;
18726;SDS011;9492;51.888;5.186;2022-07-29T07:10:32;1.97;;;1.77;;
18726;SDS011;9492;51.888;5.186;2022-07-29T07:12:58;2.67;;;1.63;;
18726;SDS011;9492;51.888;5.186;2022-07-29T07:15:25;3.47;;;2.10;;
18726;SDS011;9492;51.888;5.186;2022-07-29T07:17:51;2.20;;;1.90;;
18726;SDS011;9492;51.888;5.186;2022-07-29T07:20:17;2.13;;;1.80;;
18726;SDS011;9492;51.888;5.186;2022-07-29T07:22:43;4.30;;;1.93;;
18726;SDS011;9492;51.888;5.186;2022-07-29T07:25:09;3.60;;;2.07;;
18726;SDS011;9492;51.888;5.186;2022-07-29T07:27:36;3.27;;;2.40;;
18726;SDS011;9492;51.888;5.186;2022-07-29T07:30:03;3.27;;;2.07;;
18726;SDS011;9492;51.888;5.186;2022-07-29T07:32:30;2.37;;;2.00;;
18726;SDS011;9492;51.888;5.186;2022-07-29T07:34:56;4.23;;;2.40;;
18726;SDS011;9492;51.888;5.186;2022-07-29T07:37:23;3.30;;;2.03;;
18726;SDS011;9492;51.888;5.186;2022-07-29T07:39:49;5.03;;;2.40;;
18726;SDS011;9492;51.888;5.186;2022-07-29T07:42:16;3.10;;;2.27;;
18726;SDS011;9492;51.888;5.186;2022-07-29T07:44:42;3.10;;;2.20;;
18726;SDS011;9492;51.888;5.186;2022-07-29T07:47:08;4.73;;;1.93;;
18726;SDS011;9492;51.888;5.186;2022-07-29T07:49:34;3.77;;;1.90;;
18726;SDS011;9492;51.888;5.186;2022-07-29T07:52:00;4.90;;;2.50;;
18726;SDS011;9492;51.888;5.186;2022-07-29T07:54:26;2.43;;;2.10;;
18726;SDS011;9492;51.888;5.186;2022-07-29T07:56:52;2.87;;;2.23;;
18726;SDS011;9492;51.888;5.186;2022-07-29T07:59:18;2.00;;;1.80;;
18726;SDS011;9492;51.888;5.186;2022-07-29T08:01:44;1.90;;;1.80;;
18726;SDS011;9492;51.888;5.186;2022-07-29T08:04:10;2.93;;;2.07;;
18726;SDS011;9492;51.888;5.186;2022-07-29T08:06:36;6.53;;;1.83;;
18726;SDS011;9492;51.888;5.186;2022-07-29T08:09:05;2.93;;;2.20;;
18726;SDS011;9492;51.888;5.186;2022-07-29T08:11:31;4.17;;;2.47;;
18726;SDS011;9492;51.888;5.186;2022-07-29T08:13:57;2.23;;;2.00;;
18726;SDS011;9492;51.888;5.186;2022-07-29T08:16:23;2.33;;;1.77;;
18726;SDS011;9492;51.888;5.186;2022-07-29T08:18:50;3.60;;;2.00;;
18726;SDS011;9492;51.888;5.186;2022-07-29T08:21:17;3.63;;;2.07;;
18726;SDS011;9492;51.888;5.186;2022-07-29T08:23:44;3.00;;;1.90;;
18726;SDS011;9492;51.888;5.186;2022-07-29T08:26:13;3.00;;;1.93;;
18726;SDS011;9492;51.888;5.186;2022-07-29T08:28:39;3.47;;;1.60;;
18726;SDS011;9492;51.888;5.186;2022-07-29T08:31:06;4.30;;;2.10;;
18726;SDS011;9492;51.888;5.186;2022-07-29T08:33:32;2.22;;;2.03;;
18726;SDS011;9492;51.888;5.186;2022-07-29T08:35:58;3.42;;;1.88;;
18726;SDS011;9492;51.888;5.186;2022-07-29T08:38:24;4.55;;;1.80;;
18726;SDS011;9492;51.888;5.186;2022-07-29T08:40:51;4.05;;;2.00;;
18726;SDS011;9492;51.888;5.186;2022-07-29T08:43:17;3.80;;;2.00;;
18726;SDS011;9492;51.888;5.186;2022-07-29T08:45:45;2.00;;;1.52;;
18726;SDS011;9492;51.888;5.186;2022-07-29T08:48:12;2.97;;;1.80;;
18726;SDS011;9492;51.888;5.186;2022-07-29T08:50:38;3.60;;;1.70;;
18726;SDS011;9492;51.888;5.186;2022-07-29T08:53:05;3.60;;;1.80;;
18726;SDS011;9492;51.888;5.186;2022-07-29T08:55:31;4.47;;;2.03;;
18726;SDS011;9492;51.888;5.186;2022-07-29T08:57:58;4.10;;;1.70;;
18726;SDS011;9492;51.888;5.186;2022-07-29T09:00:24;5.88;;;1.70;;
18726;SDS011;9492;51.888;5.186;2022-07-29T09:02:51;3.95;;;2.03;;
18726;SDS011;9492;51.888;5.186;2022-07-29T09:05:22;3.17;;;1.55;;
18726;SDS011;9492;51.888;5.186;2022-07-29T09:07:48;5.57;;;2.10;;
18726;SDS011;9492;51.888;5.186;2022-07-29T09:10:14;2.30;;;1.50;;
18726;SDS011;9492;51.888;5.186;2022-07-29T09:12:41;2.05;;;1.80;;
18726;SDS011;9492;51.888;5.186;2022-07-29T09:15:07;2.42;;;1.40;;
18726;SDS011;9492;51.888;5.186;2022-07-29T09:17:46;2.30;;;1.95;;
18726;SDS011;9492;51.888;5.186;2022-07-29T09:20:16;2.63;;;1.57;;
18726;SDS011;9492;51.888;5.186;2022-07-29T09:22:42;2.45;;;1.73;;
18726;SDS011;9492;51.888;5.186;2022-07-29T09:25:08;3.53;;;1.77;;
18726;SDS011;9492;51.888;5.186;2022-07-29T09:27:34;2.73;;;1.83;;
18726;SDS011;9492;51.888;5.186;2022-07-29T09:30:03;2.57;;;1.83;;
18726;SDS011;9492;51.888;5.186;2022-07-29T09:32:30;2.47;;;1.90;;
18726;SDS011;9492;51.888;5.186;2022-07-29T09:37:41;3.73;;;2.17;;
18726;SDS011;9492;51.888;5.186;2022-07-29T09:40:11;4.40;;;1.83;;
18726;SDS011;9492;51.888;5.186;2022-07-29T09:42:38;2.30;;;2.00;;
18726;SDS011;9492;51.888;5.186;2022-07-29T09:45:04;2.70;;;2.00;;
18726;SDS011;9492;51.888;5.186;2022-07-29T09:47:43;2.67;;;1.87;;
18726;SDS011;9492;51.888;5.186;2022-07-29T09:50:10;4.50;;;1.80;;
18726;SDS011;9492;51.888;5.186;2022-07-29T09:52:46;2.73;;;1.97;;
18726;SDS011;9492;51.888;5.186;2022-07-29T09:55:12;3.30;;;1.77;;
18726;SDS011;9492;51.888;5.186;2022-07-29T09:57:39;3.50;;;1.60;;
18726;SDS011;9492;51.888;5.186;2022-07-29T10:00:07;3.17;;;1.53;;
18726;SDS011;9492;51.888;5.186;2022-07-29T10:02:34;2.03;;;1.30;;
18726;SDS011;9492;51.888;5.186;2022-07-29T10:05:01;3.80;;;1.60;;
18726;SDS011;9492;51.888;5.186;2022-07-29T10:07:42;3.72;;;1.80;;
18726;SDS011;9492;51.888;5.186;2022-07-29T10:10:09;5.35;;;2.42;;
18726;SDS011;9492;51.888;5.186;2022-07-29T10:12:35;2.47;;;1.50;;
18726;SDS011;9492;51.888;5.186;2022-07-29T10:15:13;2.93;;;1.70;;
18726;SDS011;9492;51.888;5.186;2022-07-29T10:17:40;3.15;;;2.10;;
18726;SDS011;9492;51.888;5.186;2022-07-29T10:20:07;2.93;;;1.40;;
18726;SDS011;9492;51.888;5.186;2022-07-29T10:22:33;3.03;;;1.90;;
18726;SDS011;9492;51.888;5.186;2022-07-29T10:24:59;2.85;;;1.55;;
18726;SDS011;9492;51.888;5.186;2022-07-29T10:27:25;4.38;;;1.75;;
18726;SDS011;9492;51.888;5.186;2022-07-29T10:29:51;2.95;;;1.80;;
18726;SDS011;9492;51.888;5.186;2022-07-29T10:37:42;2.72;;;1.40;;
18726;SDS011;9492;51.888;5.186;2022-07-29T10:43:17;1.88;;;1.20;;
18726;SDS011;9492;51.888;5.186;2022-07-29T10:45:46;4.95;;;1.50;;
18726;SDS011;9492;51.888;5.186;2022-07-29T10:48:13;2.95;;;1.70;;
18726;SDS011;9492;51.888;5.186;2022-07-29T10:51:21;3.40;;;1.70;;
18726;SDS011;9492;51.888;5.186;2022-07-29T10:56:22;4.68;;;1.73;;
18726;SDS011;9492;51.888;5.186;2022-07-29T10:59:22;2.40;;;1.55;;
18726;SDS011;9492;51.888;5.186;2022-07-29T11:01:35;1.75;;;1.63;;
18726;SDS011;9492;51.888;5.186;2022-07-29T11:04:00;3.72;;;1.80;;
18726;SDS011;9492;51.888;5.186;2022-07-29T11:06:56;2.75;;;2.20;;
18726;SDS011;9492;51.888;5.186;2022-07-29T11:09:15;3.92;;;2.20;;
18726;SDS011;9492;51.888;5.186;2022-07-29T11:11:42;6.45;;;3.80;;
18726;SDS011;9492;51.888;5.186;2022-07-29T11:14:08;2.38;;;1.98;;
18726;SDS011;9492;51.888;5.186;2022-07-29T11:19:19;5.82;;;2.13;;
18726;SDS011;9492;51.888;5.186;2022-07-29T11:21:45;2.97;;;2.30;;
18726;SDS011;9492;51.888;5.186;2022-07-29T11:29:34;4.68;;;2.20;;
18726;SDS011;9492;51.888;5.186;2022-07-29T11:32:13;2.97;;;1.50;;
18726;SDS011;9492;51.888;5.186;2022-07-29T11:34:41;4.97;;;1.70;;
18726;SDS011;9492;51.888;5.186;2022-07-29T11:39:36;4.55;;;2.03;;
18726;SDS011;9492;51.888;5.186;2022-07-29T11:47:23;4.65;;;2.15;;
18726;SDS011;9492;51.888;5.186;2022-07-29T11:49:50;1.63;;;1.38;;
18726;SDS011;9492;51.888;5.186;2022-07-29T11:52:17;3.25;;;1.98;;
18726;SDS011;9492;51.888;5.186;2022-07-29T11:54:43;4.00;;;1.73;;
18726;SDS011;9492;51.888;5.186;2022-07-29T11:57:10;2.65;;;1.60;;
18726;SDS011;9492;51.888;5.186;2022-07-29T11:59:39;3.28;;;1.50;;
18726;SDS011;9492;51.888;5.186;2022-07-29T12:02:06;6.03;;;1.63;;
18726;SDS011;9492;51.888;5.186;2022-07-29T12:04:33;2.42;;;1.67;;
18726;SDS011;9492;51.888;5.186;2022-07-29T12:06:59;1.77;;;1.17;;
18726;SDS011;9492;51.888;5.186;2022-07-29T12:09:26;1.63;;;1.50;;
18726;SDS011;9492;51.888;5.186;2022-07-29T12:11:58;1.58;;;1.48;;
18726;SDS011;9492;51.888;5.186;2022-07-29T12:14:27;3.67;;;1.85;;
18726;SDS011;9492;51.888;5.186;2022-07-29T12:16:54;2.35;;;1.10;;
18726;SDS011;9492;51.888;5.186;2022-07-29T12:19:20;4.30;;;1.77;;
18726;SDS011;9492;51.888;5.186;2022-07-29T12:21:46;2.97;;;1.58;;
18726;SDS011;9492;51.888;5.186;2022-07-29T12:24:12;4.10;;;1.88;;
18726;SDS011;9492;51.888;5.186;2022-07-29T12:26:48;1.92;;;1.42;;
18726;SDS011;9492;51.888;5.186;2022-07-29T12:29:15;2.53;;;1.52;;
18726;SDS011;9492;51.888;5.186;2022-07-29T12:31:42;2.42;;;1.58;;
18726;SDS011;9492;51.888;5.186;2022-07-29T12:34:08;1.42;;;1.27;;
18726;SDS011;9492;51.888;5.186;2022-07-29T12:36:34;6.25;;;1.55;;
18726;SDS011;9492;51.888;5.186;2022-07-29T12:39:01;3.65;;;1.50;;
18726;SDS011;9492;51.888;5.186;2022-07-29T12:41:28;4.00;;;1.63;;
18726;SDS011;9492;51.888;5.186;2022-07-29T12:43:54;3.47;;;1.30;;
18726;SDS011;9492;51.888;5.186;2022-07-29T12:46:20;2.25;;;1.13;;
18726;SDS011;9492;51.888;5.186;2022-07-29T12:48:49;2.65;;;1.35;;
18726;SDS011;9492;51.888;5.186;2022-07-29T12:51:16;2.20;;;1.30;;
18726;SDS011;9492;51.888;5.186;2022-07-29T12:53:51;5.55;;;1.67;;
18726;SDS011;9492;51.888;5.186;2022-07-29T12:56:27;2.40;;;1.48;;
18726;SDS011;9492;51.888;5.186;2022-07-29T12:58:52;1.92;;;1.20;;
18726;SDS011;9492;51.888;5.186;2022-07-29T13:01:19;2.88;;;1.30;;
18726;SDS011;9492;51.888;5.186;2022-07-29T13:03:53;2.25;;;1.20;;
18726;SDS011;9492;51.888;5.186;2022-07-29T13:09:01;7.38;;;1.45;;
18726;SDS011;9492;51.888;5.186;2022-07-29T13:11:31;3.67;;;1.27;;
18726;SDS011;9492;51.888;5.186;2022-07-29T13:13:57;1.98;;;1.13;;
18726;SDS011;9492;51.888;5.186;2022-07-29T13:16:26;4.88;;;1.30;;
18726;SDS011;9492;51.888;5.186;2022-07-29T13:19:09;2.13;;;1.38;;
18726;SDS011;9492;51.888;5.186;2022-07-29T13:21:35;3.30;;;1.35;;
18726;SDS011;9492;51.888;5.186;2022-07-29T13:24:02;3.60;;;1.33;;
18726;SDS011;9492;51.888;5.186;2022-07-29T13:26:28;2.15;;;1.25;;
18726;SDS011;9492;51.888;5.186;2022-07-29T13:28:54;2.92;;;1.13;;
18726;SDS011;9492;51.888;5.186;2022-07-29T13:31:20;3.30;;;1.48;;
18726;SDS011;9492;51.888;5.186;2022-07-29T13:33:47;3.08;;;1.25;;
18726;SDS011;9492;51.888;5.186;2022-07-29T13:36:13;2.58;;;1.40;;
18726;SDS011;9492;51.888;5.186;2022-07-29T13:38:38;2.45;;;1.42;;
18726;SDS011;9492;51.888;5.186;2022-07-29T13:41:05;3.15;;;1.67;;
18726;SDS011;9492;51.888;5.186;2022-07-29T13:43:31;1.92;;;1.58;;
18726;SDS011;9492;51.888;5.186;2022-07-29T13:45:57;1.98;;;1.40;;
18726;SDS011;9492;51.888;5.186;2022-07-29T13:48:23;1.50;;;1.40;;
18726;SDS011;9492;51.888;5.186;2022-07-29T13:50:49;1.83;;;1.20;;
18726;SDS011;9492;51.888;5.186;2022-07-29T13:53:15;2.58;;;1.50;;
18726;SDS011;9492;51.888;5.186;2022-07-29T13:55:41;3.22;;;1.70;;
18726;SDS011;9492;51.888;5.186;2022-07-29T13:58:07;2.15;;;1.58;;
18726;SDS011;9492;51.888;5.186;2022-07-29T14:00:33;3.78;;;1.35;;
18726;SDS011;9492;51.888;5.186;2022-07-29T14:02:59;3.78;;;1.67;;
18726;SDS011;9492;51.888;5.186;2022-07-29T14:05:25;2.83;;;1.65;;
18726;SDS011;9492;51.888;5.186;2022-07-29T14:07:51;2.92;;;1.20;;
18726;SDS011;9492;51.888;5.186;2022-07-29T14:10:17;1.75;;;1.13;;
18726;SDS011;9492;51.888;5.186;2022-07-29T14:12:43;3.60;;;1.45;;
18726;SDS011;9492;51.888;5.186;2022-07-29T14:15:09;1.00;;;0.85;;
18726;SDS011;9492;51.888;5.186;2022-07-29T14:17:35;3.03;;;1.48;;
18726;SDS011;9492;51.888;5.186;2022-07-29T14:20:01;2.45;;;1.38;;
18726;SDS011;9492;51.888;5.186;2022-07-29T14:22:27;5.10;;;1.50;;
18726;SDS011;9492;51.888;5.186;2022-07-29T14:24:52;1.67;;;1.20;;
18726;SDS011;9492;51.888;5.186;2022-07-29T14:27:18;2.17;;;1.20;;
18726;SDS011;9492;51.888;5.186;2022-07-29T14:29:44;3.53;;;1.45;;
18726;SDS011;9492;51.888;5.186;2022-07-29T14:32:10;3.10;;;1.50;;
18726;SDS011;9492;51.888;5.186;2022-07-29T14:34:37;1.63;;;1.15;;
18726;SDS011;9492;51.888;5.186;2022-07-29T14:37:04;2.00;;;1.65;;
18726;SDS011;9492;51.888;5.186;2022-07-29T14:39:31;2.05;;;1.50;;
18726;SDS011;9492;51.888;5.186;2022-07-29T14:41:57;2.20;;;1.23;;
18726;SDS011;9492;51.888;5.186;2022-07-29T14:44:23;1.80;;;1.58;;
18726;SDS011;9492;51.888;5.186;2022-07-29T14:46:51;5.15;;;1.65;;
18726;SDS011;9492;51.888;5.186;2022-07-29T14:49:17;3.55;;;1.50;;
18726;SDS011;9492;51.888;5.186;2022-07-29T14:51:43;1.80;;;1.33;;
18726;SDS011;9492;51.888;5.186;2022-07-29T14:54:09;4.20;;;1.33;;
18726;SDS011;9492;51.888;5.186;2022-07-29T14:56:35;2.08;;;1.40;;
18726;SDS011;9492;51.888;5.186;2022-07-29T14:59:01;4.70;;;1.40;;
18726;SDS011;9492;51.888;5.186;2022-07-29T15:01:27;3.78;;;1.38;;
18726;SDS011;9492;51.888;5.186;2022-07-29T15:03:53;2.10;;;1.50;;
18726;SDS011;9492;51.888;5.186;2022-07-29T15:06:19;3.13;;;1.40;;
18726;SDS011;9492;51.888;5.186;2022-07-29T15:08:45;3.22;;;1.30;;
18726;SDS011;9492;51.888;5.186;2022-07-29T15:11:11;1.27;;;1.15;;
18726;SDS011;9492;51.888;5.186;2022-07-29T15:13:37;2.65;;;1.40;;
18726;SDS011;9492;51.888;5.186;2022-07-29T15:16:04;5.45;;;1.70;;
18726;SDS011;9492;51.888;5.186;2022-07-29T15:18:30;2.75;;;1.45;;
18726;SDS011;9492;51.888;5.186;2022-07-29T15:20:56;2.65;;;1.38;;
18726;SDS011;9492;51.888;5.186;2022-07-29T15:23:22;3.58;;;1.20;;
18726;SDS011;9492;51.888;5.186;2022-07-29T15:25:48;1.85;;;1.35;;
18726;SDS011;9492;51.888;5.186;2022-07-29T15:28:14;3.13;;;1.60;;
18726;SDS011;9492;51.888;5.186;2022-07-29T15:30:40;2.30;;;1.30;;
18726;SDS011;9492;51.888;5.186;2022-07-29T15:33:09;1.45;;;1.35;;
18726;SDS011;9492;51.888;5.186;2022-07-29T15:35:35;1.40;;;1.17;;
18726;SDS011;9492;51.888;5.186;2022-07-29T15:38:01;1.67;;;1.00;;
18726;SDS011;9492;51.888;5.186;2022-07-29T15:40:28;2.45;;;1.00;;
18726;SDS011;9492;51.888;5.186;2022-07-29T15:42:54;2.33;;;1.42;;
18726;SDS011;9492;51.888;5.186;2022-07-29T15:45:20;3.30;;;1.67;;